Time;durP1;ratioP1;P1;durP2;ratioP2;P2;SDS_P1;SDS_P2;PMS_P1;PMS_P2;Temp;Humidity;BMP_temperature;BMP_pressure;BME280_temperature;BME280_humidity;BME280_pressure;Samples;Min_cycle;Max_cycle;Signal;HPM_P1;HPM_P2
2022/10/08 00:01:08;;;;;;;7.93;1.33;;;12.70;1.00;;;;;;5089050;28;20443;-77
2022/10/08 00:03:37;;;;;;;6.55;1.23;;;12.70;1.00;;;;;;5100137;28;20077;-77
2022/10/08 00:06:21;;;;;;;7.85;0.98;;;12.60;1.00;;;;;;5102278;27;20390;-77
2022/10/08 00:09:03;;;;;;;6.38;1.10;;;12.60;1.00;;;;;;5095545;28;21062;-77
2022/10/08 00:11:36;;;;;;;6.65;1.40;;;12.50;1.00;;;;;;5082363;28;20241;-77
2022/10/08 00:14:02;;;;;;;5.18;1.25;;;12.50;99.90;;;;;;5092450;28;20071;-78
2022/10/08 00:16:34;;;;;;;4.72;1.45;;;12.50;99.90;;;;;;5093885;28;20048;-77
2022/10/08 00:19:04;;;;;;;9.02;1.35;;;12.40;99.90;;;;;;5097203;28;20028;-77
2022/10/08 00:21:33;;;;;;;8.27;1.10;;;12.40;99.90;;;;;;5090722;28;20024;-77
2022/10/08 00:24:00;;;;;;;6.70;1.23;;;12.30;99.90;;;;;;5092985;28;20032;-77
2022/10/08 00:26:27;;;;;;;6.95;1.10;;;12.30;99.90;;;;;;5091885;28;20046;-77
2022/10/08 00:28:55;;;;;;;7.75;1.20;;;12.30;99.90;;;;;;5092951;28;20024;-77
2022/10/08 00:31:27;;;;;;;7.75;1.27;;;12.30;99.90;;;;;;5092796;28;20031;-77
2022/10/08 00:33:55;;;;;;;6.53;1.23;;;12.20;99.90;;;;;;5090354;28;20062;-77
2022/10/08 00:36:22;;;;;;;7.50;1.15;;;12.10;99.90;;;;;;5078272;28;20035;-77
2022/10/08 00:38:48;;;;;;;4.78;1.30;;;12.00;99.90;;;;;;5094999;28;20083;-77
2022/10/08 00:41:20;;;;;;;8.18;1.20;;;12.00;99.90;;;;;;5095916;28;20016;-77
2022/10/08 00:43:49;;;;;;;7.70;1.30;;;11.90;1.00;;;;;;5095346;28;20020;-77
2022/10/08 00:46:35;;;;;;;5.90;1.00;;;11.90;1.00;;;;;;5095033;28;20027;-77
2022/10/08 00:49:15;;;;;;;8.30;1.10;;;12.00;1.00;;;;;;5094861;28;20092;-77
2022/10/08 00:51:43;;;;;;;5.43;1.10;;;12.00;1.00;;;;;;5094495;28;20080;-78
2022/10/08 00:54:10;;;;;;;4.05;1.35;;;11.90;1.00;;;;;;5094718;28;20482;-78
2022/10/08 00:56:38;;;;;;;6.28;1.55;;;11.70;1.00;;;;;;5094919;28;20031;-78
2022/10/08 00:59:05;;;;;;;7.75;1.10;;;11.60;1.00;;;;;;5094250;28;20016;-77
2022/10/08 01:01:30;;;;;;;2.67;1.20;;;11.50;1.00;;;;;;5094606;28;20012;-77
2022/10/08 01:04:00;;;;;;;6.85;1.30;;;11.40;1.00;;;;;;5083601;28;20051;-77
2022/10/08 01:06:29;;;;;;;7.43;1.33;;;11.50;1.00;;;;;;5079202;28;20479;-77
2022/10/08 01:09:15;;;;;;;6.45;1.67;;;11.40;1.00;;;;;;5094813;28;20400;-77
2022/10/08 01:12:05;;;;;;;5.07;1.00;;;11.30;1.00;;;;;;5094612;28;20020;-77
2022/10/08 01:14:43;;;;;;;11.07;1.35;;;11.20;1.00;;;;;;5073817;28;20027;-77
2022/10/08 01:17:38;;;;;;;7.95;1.40;;;11.10;1.00;;;;;;5073863;28;20052;-78
2022/10/08 01:20:22;;;;;;;8.20;1.02;;;10.90;1.00;;;;;;5073678;28;20032;-77
2022/10/08 01:23:22;;;;;;;9.48;1.77;;;10.80;1.00;;;;;;5073953;28;20029;-77
2022/10/08 01:25:56;;;;;;;8.50;1.50;;;10.60;1.00;;;;;;5073600;28;20691;-77
2022/10/08 01:28:32;;;;;;;5.75;1.00;;;10.50;1.00;;;;;;5073290;28;20029;-77
2022/10/08 01:31:19;;;;;;;5.90;1.20;;;10.40;1.00;;;;;;5096700;28;20110;-78
2022/10/08 01:33:57;;;;;;;10.32;1.50;;;10.30;1.00;;;;;;5114339;28;20031;-77
2022/10/08 01:36:26;;;;;;;10.80;1.30;;;10.30;1.00;;;;;;5114406;28;20058;-78
2022/10/08 01:38:54;;;;;;;10.25;1.40;;;10.10;1.00;;;;;;5114274;28;20012;-78
2022/10/08 01:41:24;;;;;;;7.93;1.30;;;10.10;1.00;;;;;;5102866;28;20027;-77
2022/10/08 01:44:06;;;;;;;9.98;1.20;;;10.00;1.00;;;;;;5093842;28;20016;-77
2022/10/08 01:46:34;;;;;;;6.97;1.10;;;10.00;1.00;;;;;;5093560;28;20427;-77
2022/10/08 01:49:06;;;;;;;12.85;1.55;;;10.20;1.00;;;;;;5093478;28;20402;-76
2022/10/08 01:51:38;;;;;;;7.13;1.13;;;10.20;1.00;;;;;;5093401;28;20062;-77
2022/10/08 01:54:08;;;;;;;9.77;1.60;;;10.20;1.00;;;;;;5093543;28;20451;-77
2022/10/08 01:56:37;;;;;;;9.05;1.35;;;10.00;1.00;;;;;;5093633;28;20020;-78
2022/10/08 01:59:10;;;;;;;7.53;1.10;;;9.80;1.00;;;;;;5093419;28;20068;-77
2022/10/08 02:02:09;;;;;;;6.82;1.17;;;9.80;1.00;;;;;;5093464;28;20032;-77
2022/10/08 02:04:37;;;;;;;9.52;1.23;;;9.70;1.00;;;;;;5093253;28;20379;-77
2022/10/08 02:07:17;;;;;;;7.93;1.20;;;9.70;1.00;;;;;;5081763;28;20064;-77
2022/10/08 02:09:50;;;;;;;10.23;1.80;;;9.80;1.00;;;;;;5072931;28;20044;-77
2022/10/08 02:12:19;;;;;;;14.27;1.88;;;9.90;1.00;;;;;;5073142;28;20025;-77
2022/10/08 02:14:52;;;;;;;8.82;1.30;;;10.10;1.00;;;;;;5072682;28;20036;-77
2022/10/08 02:17:44;;;;;;;11.10;1.98;;;10.20;1.00;;;;;;5072805;28;20053;-77
2022/10/08 02:20:31;;;;;;;6.93;1.45;;;10.30;1.00;;;;;;5093990;28;20020;-77
2022/10/08 02:23:04;;;;;;;6.85;1.30;;;10.50;1.00;;;;;;5113624;28;20106;-77
2022/10/08 02:25:48;;;;;;;8.77;1.88;;;10.60;1.00;;;;;;5113224;28;20077;-77
2022/10/08 02:28:30;;;;;;;14.82;2.05;;;10.70;1.00;;;;;;5113577;28;20032;-78
2022/10/08 02:31:21;;;;;;;13.55;1.67;;;10.60;1.00;;;;;;5113515;28;20016;-77
2022/10/08 02:33:54;;;;;;;10.55;1.73;;;10.50;1.00;;;;;;5114019;28;20432;-77
2022/10/08 02:36:26;;;;;;;9.32;1.65;;;10.30;1.00;;;;;;5103903;28;20046;-77
2022/10/08 02:38:55;;;;;;;11.75;1.35;;;10.20;1.00;;;;;;5093286;28;20106;-78
2022/10/08 02:41:27;;;;;;;10.82;1.50;;;10.10;1.00;;;;;;5105096;28;20019;-76
2022/10/08 02:43:57;;;;;;;11.10;1.83;;;10.00;1.00;;;;;;5108026;28;20077;-77
2022/10/08 02:46:27;;;;;;;11.38;1.40;;;10.10;1.00;;;;;;5093087;28;20032;-77
2022/10/08 02:49:01;;;;;;;10.82;1.42;;;10.10;1.00;;;;;;5092943;28;20051;-77
2022/10/08 02:51:29;;;;;;;7.35;1.70;;;10.10;1.00;;;;;;5092982;28;20032;-77
2022/10/08 02:53:56;;;;;;;14.00;1.95;;;10.20;1.00;;;;;;5093070;28;20028;-77
2022/10/08 02:56:26;;;;;;;13.30;1.63;;;10.20;1.00;;;;;;5098377;28;20032;-77
2022/10/08 02:58:52;;;;;;;12.38;1.70;;;10.10;1.00;;;;;;5109470;28;20020;-77
2022/10/08 03:01:25;;;;;;;10.27;1.60;;;10.00;1.00;;;;;;5093172;28;20024;-77
2022/10/08 03:03:57;;;;;;;14.48;1.58;;;9.80;1.00;;;;;;5093174;28;20080;-77
2022/10/08 03:06:24;;;;;;;9.25;1.65;;;9.70;1.00;;;;;;5092889;28;20032;-77
2022/10/08 03:08:50;;;;;;;8.50;1.60;;;9.70;1.00;;;;;;5095108;28;20020;-77
2022/10/08 03:11:16;;;;;;;13.23;1.67;;;9.60;1.00;;;;;;5113128;28;20036;-77
2022/10/08 03:13:45;;;;;;;8.13;1.52;;;9.60;1.00;;;;;;5112921;28;20026;-77
2022/10/08 03:16:14;;;;;;;13.85;1.50;;;9.50;1.00;;;;;;5113053;28;20040;-77
2022/10/08 03:18:41;;;;;;;9.70;1.50;;;9.50;1.00;;;;;;5113217;28;20023;-77
2022/10/08 03:21:09;;;;;;;9.63;1.40;;;9.40;1.00;;;;;;5113050;28;20462;-77
2022/10/08 03:23:35;;;;;;;7.57;1.38;;;9.40;1.00;;;;;;5114689;28;20036;-78
2022/10/08 03:26:00;;;;;;;7.60;1.75;;;9.20;1.00;;;;;;5116455;28;20024;-78
2022/10/08 03:28:26;;;;;;;6.70;1.15;;;9.20;1.00;;;;;;5116811;28;20550;-77
2022/10/08 03:30:51;;;;;;;12.45;1.48;;;9.20;1.00;;;;;;5116886;28;20112;-77
2022/10/08 03:33:17;;;;;;;8.13;1.33;;;9.00;1.00;;;;;;5117221;28;20069;-77
2022/10/08 03:35:45;;;;;;;13.63;1.80;;;9.00;1.00;;;;;;5113452;28;20028;-77
2022/10/08 03:38:11;;;;;;;8.25;1.35;;;8.90;1.00;;;;;;5096163;28;20016;-77
2022/10/08 03:40:36;;;;;;;8.55;1.73;;;8.90;1.00;;;;;;5113415;28;20072;-77
2022/10/08 03:43:02;;;;;;;7.88;1.58;;;8.90;1.00;;;;;;5116544;28;20020;-77
2022/10/08 03:45:27;;;;;;;12.25;1.70;;;8.70;1.00;;;;;;5116109;28;20139;-77
2022/10/08 03:47:53;;;;;;;11.30;1.33;;;8.90;1.00;;;;;;5116731;28;20050;-77
2022/10/08 03:50:20;;;;;;;14.32;1.75;;;8.80;1.00;;;;;;5111974;28;20024;-77
2022/10/08 03:52:46;;;;;;;9.20;2.05;;;8.70;1.00;;;;;;5095721;28;20020;-77
2022/10/08 03:55:11;;;;;;;13.52;2.00;;;8.60;1.00;;;;;;5096894;28;20077;-77
2022/10/08 03:57:37;;;;;;;8.20;1.38;;;8.60;1.00;;;;;;5097811;28;20054;-77
2022/10/08 04:00:03;;;;;;;11.98;1.70;;;8.60;1.00;;;;;;5098245;28;20038;-77
2022/10/08 04:02:31;;;;;;;9.63;1.50;;;8.50;1.00;;;;;;5087803;28;20028;-77
2022/10/08 04:04:56;;;;;;;8.48;1.83;;;8.40;1.00;;;;;;5097726;28;20028;-77
2022/10/08 04:07:22;;;;;;;12.30;2.83;;;8.50;1.00;;;;;;5096134;28;20348;-77
2022/10/08 04:09:47;;;;;;;8.98;3.75;;;8.50;1.00;;;;;;5096761;28;20020;-77
2022/10/08 04:12:13;;;;;;;10.35;2.40;;;8.40;1.00;;;;;;5092779;28;20020;-77
2022/10/08 04:14:39;;;;;;;13.43;2.30;;;8.50;1.00;;;;;;5093026;28;20046;-77
2022/10/08 04:17:04;;;;;;;12.55;1.75;;;8.30;1.00;;;;;;5091851;28;20052;-77
2022/10/08 04:19:30;;;;;;;7.10;1.30;;;8.20;1.00;;;;;;5095712;28;20032;-78
2022/10/08 04:21:55;;;;;;;11.55;1.50;;;8.30;1.00;;;;;;5096477;28;20148;-77
2022/10/08 04:24:21;;;;;;;7.93;1.23;;;8.30;1.00;;;;;;5096866;28;20035;-77
2022/10/08 04:26:46;;;;;;;8.50;1.10;;;8.20;1.00;;;;;;5087235;28;20113;-77
2022/10/08 04:29:12;;;;;;;7.45;1.00;;;8.10;1.00;;;;;;5091807;28;20421;-77
2022/10/08 04:31:38;;;;;;;11.38;1.35;;;8.10;1.00;;;;;;5092380;28;20451;-77
2022/10/08 04:34:04;;;;;;;14.27;1.38;;;8.10;1.00;;;;;;5103496;28;20073;-77
2022/10/08 04:36:29;;;;;;;11.88;1.20;;;8.00;1.00;;;;;;5092809;28;20020;-78
2022/10/08 04:38:55;;;;;;;10.60;1.20;;;8.00;1.00;;;;;;5095570;28;21117;-77
2022/10/08 04:41:24;;;;;;;8.55;0.98;;;8.00;1.00;;;;;;5094191;28;20036;-77
2022/10/08 04:43:51;;;;;;;9.15;1.00;;;7.90;1.00;;;;;;5084099;28;20467;-77
2022/10/08 04:46:18;;;;;;;8.82;1.20;;;8.00;1.00;;;;;;5093007;28;20036;-77
2022/10/08 04:48:55;;;;;;;5.07;0.82;;;8.00;1.00;;;;;;5096161;28;20107;-77
2022/10/08 04:51:23;;;;;;;7.32;1.10;;;7.90;1.00;;;;;;5089675;28;20051;-77
2022/10/08 04:53:49;;;;;;;8.32;1.10;;;8.00;1.00;;;;;;5081436;28;20732;-77
2022/10/08 04:56:21;;;;;;;3.58;1.02;;;8.00;1.00;;;;;;5093219;28;20483;-77
2022/10/08 04:58:47;;;;;;;9.10;1.10;;;8.00;1.00;;;;;;5088710;28;20028;-77
2022/10/08 05:01:16;;;;;;;10.88;1.52;;;8.10;1.00;;;;;;5086729;28;20028;-77
2022/10/08 05:03:45;;;;;;;10.63;1.15;;;8.20;1.00;;;;;;5090950;28;20012;-77
2022/10/08 05:06:11;;;;;;;9.70;1.65;;;8.10;1.00;;;;;;5090143;28;20487;-77
2022/10/08 05:08:37;;;;;;;7.20;1.45;;;8.20;1.00;;;;;;5086117;28;20411;-77
2022/10/08 05:11:03;;;;;;;6.63;1.38;;;8.20;1.00;;;;;;5089201;28;20020;-77
2022/10/08 05:13:29;;;;;;;8.65;2.20;;;8.20;1.00;;;;;;5094453;28;20088;-77
2022/10/08 05:15:54;;;;;;;7.60;1.15;;;8.10;1.00;;;;;;5082785;28;20048;-77
2022/10/08 05:18:21;;;;;;;8.50;1.42;;;8.00;1.00;;;;;;5097905;28;20031;-77
2022/10/08 05:20:47;;;;;;;16.05;1.95;;;8.20;1.00;;;;;;5093796;28;20441;-77
2022/10/08 05:23:12;;;;;;;13.88;1.45;;;8.10;1.00;;;;;;5091866;28;20024;-77
2022/10/08 05:25:38;;;;;;;12.52;1.45;;;8.10;1.00;;;;;;5095337;28;20039;-77
2022/10/08 05:28:04;;;;;;;11.63;2.35;;;8.10;1.00;;;;;;5092029;28;20031;-77
2022/10/08 05:30:30;;;;;;;12.27;1.38;;;8.00;1.00;;;;;;5092505;28;20031;-77
2022/10/08 05:32:55;;;;;;;15.63;1.73;;;8.20;1.00;;;;;;5103535;28;20077;-77
2022/10/08 05:35:21;;;;;;;12.85;2.00;;;8.20;1.00;;;;;;5100546;28;20013;-77
2022/10/08 05:37:46;;;;;;;8.40;1.60;;;8.30;1.00;;;;;;5097163;28;20090;-77
2022/10/08 05:40:12;;;;;;;16.55;1.70;;;8.20;1.00;;;;;;5090903;28;20020;-77
2022/10/08 05:42:38;;;;;;;14.98;1.52;;;8.30;1.00;;;;;;5102190;28;20047;-77
2022/10/08 05:45:04;;;;;;;13.70;1.90;;;8.30;1.00;;;;;;5094721;28;20016;-77
2022/10/08 05:47:30;;;;;;;10.80;1.45;;;8.50;1.00;;;;;;5095382;28;20024;-77
2022/10/08 05:49:55;;;;;;;11.82;1.77;;;8.70;1.00;;;;;;5091531;28;20032;-76
2022/10/08 05:52:21;;;;;;;13.98;1.75;;;8.80;1.00;;;;;;5094550;28;20030;-77
2022/10/08 05:54:46;;;;;;;6.97;1.45;;;9.00;1.00;;;;;;5097307;28;20478;-76
2022/10/08 05:57:12;;;;;;;10.20;1.17;;;9.10;1.00;;;;;;5103440;28;20352;-77
2022/10/08 05:59:37;;;;;;;8.77;1.30;;;9.20;6.60;;;;;;5095388;28;20020;-77
2022/10/08 06:02:03;;;;;;;7.25;1.38;;;9.10;16.50;;;;;;5099712;28;20020;-77
2022/10/08 06:04:28;;;;;;;8.05;1.42;;;9.20;16.90;;;;;;5096808;28;20093;-77
2022/10/08 06:06:54;;;;;;;11.45;1.73;;;9.10;28.00;;;;;;5094845;28;20483;-76
2022/10/08 06:09:20;;;;;;;9.02;1.55;;;9.00;34.10;;;;;;5090235;28;20027;-76
2022/10/08 06:11:47;;;;;;;8.95;1.52;;;9.10;99.90;;;;;;5090566;28;20024;-77
2022/10/08 06:14:15;;;;;;;9.95;1.50;;;9.30;99.90;;;;;;5090766;28;20483;-76
2022/10/08 06:16:41;;;;;;;9.63;1.23;;;9.40;99.90;;;;;;5090181;28;20067;-77
2022/10/08 06:19:08;;;;;;;10.98;1.13;;;9.40;99.90;;;;;;5089090;28;20414;-77
2022/10/08 06:21:34;;;;;;;9.02;1.48;;;9.30;99.90;;;;;;5101207;28;20031;-77
2022/10/08 06:24:03;;;;;;;11.93;1.10;;;9.30;99.90;;;;;;5081719;28;20040;-77
2022/10/08 06:26:35;;;;;;;6.13;1.33;;;9.50;99.90;;;;;;5084020;28;20049;-77
2022/10/08 06:29:01;;;;;;;6.85;1.25;;;9.60;99.90;;;;;;5094279;28;20032;-77
2022/10/08 06:31:27;;;;;;;7.28;1.60;;;9.60;99.90;;;;;;5099532;28;20418;-77
2022/10/08 06:33:56;;;;;;;8.52;1.35;;;9.60;99.90;;;;;;5094751;28;20061;-77
2022/10/08 06:36:24;;;;;;;9.57;1.63;;;9.70;99.90;;;;;;5088628;28;20093;-77
2022/10/08 06:38:57;;;;;;;7.30;1.45;;;9.80;99.90;;;;;;5086873;28;20067;-77
2022/10/08 06:41:23;;;;;;;12.10;1.58;;;10.00;99.90;;;;;;5086364;28;20090;-77
2022/10/08 06:43:49;;;;;;;11.05;1.58;;;10.30;99.90;;;;;;5085157;28;20032;-77
2022/10/08 06:46:15;;;;;;;3.10;1.20;;;10.40;41.40;;;;;;5078065;28;20364;-77
2022/10/08 06:48:41;;;;;;;8.23;0.95;;;10.50;9.00;;;;;;5098017;28;20020;-77
2022/10/08 06:51:13;;;;;;;9.27;1.00;;;10.60;1.00;;;;;;5095457;28;20096;-77
2022/10/08 06:53:39;;;;;;;8.88;1.55;;;10.70;1.00;;;;;;5098726;28;20031;-77
2022/10/08 06:56:09;;;;;;;10.80;1.33;;;11.00;1.00;;;;;;5094954;28;20028;-77
2022/10/08 06:58:35;;;;;;;3.13;0.93;;;13.60;99.90;;;;;;5099405;28;20019;-77
2022/10/08 07:01:09;;;;;;;8.00;1.23;;;16.70;99.90;;;;;;5086967;28;20024;-77
2022/10/08 07:03:35;;;;;;;12.77;1.38;;;19.00;99.90;;;;;;5084509;28;20034;-77
2022/10/08 07:06:03;;;;;;;3.42;1.10;;;20.90;71.90;;;;;;5088882;28;20106;-77
2022/10/08 07:08:29;;;;;;;4.13;0.90;;;22.00;20.90;;;;;;5104375;28;20363;-77
2022/10/08 07:11:02;;;;;;;4.85;0.95;;;21.80;10.60;;;;;;5096648;28;20161;-77
2022/10/08 07:13:28;;;;;;;3.95;1.08;;;23.10;4.40;;;;;;5099947;28;20092;-77
2022/10/08 07:16:00;;;;;;;6.82;1.30;;;24.40;1.00;;;;;;5096064;28;20076;-77
2022/10/08 07:18:26;;;;;;;6.70;1.08;;;26.00;1.00;;;;;;5086510;28;20473;-77
2022/10/08 07:20:55;;;;;;;4.85;0.90;;;25.90;1.00;;;;;;5084560;28;20063;-77
2022/10/08 07:23:21;;;;;;;4.78;0.75;;;25.20;1.00;;;;;;5096375;28;20060;-77
2022/10/08 07:26:02;;;;;;;5.65;0.65;;;25.00;1.00;;;;;;5099108;28;20086;-77
2022/10/08 07:28:30;;;;;;;3.45;1.08;;;27.10;1.00;;;;;;5096834;28;20024;-77
2022/10/08 07:30:56;;;;;;;4.70;0.77;;;27.70;1.00;;;;;;5093581;28;20036;-77
2022/10/08 07:33:21;;;;;;;3.72;0.70;;;29.10;1.00;;;;;;5092864;28;20027;-77
2022/10/08 07:35:47;;;;;;;3.83;0.75;;;29.00;1.00;;;;;;5094819;28;20038;-77
2022/10/08 07:38:17;;;;;;;3.35;0.60;;;29.40;1.00;;;;;;5092924;28;20028;-78
2022/10/08 07:40:44;;;;;;;4.82;0.80;;;29.80;1.00;;;;;;5093139;28;20016;-77
2022/10/08 07:43:09;;;;;;;4.35;0.68;;;30.50;1.00;;;;;;5094500;28;20035;-77
2022/10/08 07:45:41;;;;;;;2.75;0.65;;;31.50;1.00;;;;;;5089148;28;20418;-77
2022/10/08 07:48:07;;;;;;;3.85;0.82;;;30.70;1.00;;;;;;5097984;28;20024;-77
2022/10/08 07:50:33;;;;;;;4.18;0.90;;;32.40;1.00;;;;;;5099632;27;20030;-77
2022/10/08 07:52:58;;;;;;;3.30;0.80;;;32.60;1.00;;;;;;5097142;28;20103;-78
2022/10/08 07:55:24;;;;;;;4.18;1.13;;;33.70;1.00;;;;;;5100717;28;20091;-78
2022/10/08 07:57:49;;;;;;;2.15;0.70;;;34.40;1.00;;;;;;5100308;28;20055;-78
2022/10/08 08:00:15;;;;;;;3.90;1.00;;;34.70;1.00;;;;;;5105618;28;20070;-78
2022/10/08 08:02:40;;;;;;;3.65;0.68;;;35.60;1.00;;;;;;5084670;28;20028;-78
2022/10/08 08:05:07;;;;;;;4.43;0.70;;;35.20;1.00;;;;;;5096606;28;20012;-78
2022/10/08 08:07:32;;;;;;;3.17;0.65;;;35.70;1.00;;;;;;5101100;28;20043;-77
2022/10/08 08:09:58;;;;;;;4.90;0.70;;;36.50;1.00;;;;;;5087530;28;20027;-78
2022/10/08 08:12:23;;;;;;;4.38;0.60;;;32.80;1.00;;;;;;5092419;28;20152;-77
2022/10/08 08:14:49;;;;;;;2.33;0.80;;;29.40;1.00;;;;;;5094975;28;20071;-78
2022/10/08 08:17:14;;;;;;;4.53;0.90;;;31.30;1.00;;;;;;5109278;28;20058;-78
2022/10/08 08:19:40;;;;;;;3.58;0.63;;;33.20;1.00;;;;;;5118183;28;20028;-78
2022/10/08 08:22:06;;;;;;;7.10;1.13;;;27.60;1.00;;;;;;5106333;28;20020;-78
2022/10/08 08:24:31;;;;;;;6.30;0.90;;;24.10;1.00;;;;;;5095115;28;20031;-78
2022/10/08 08:26:57;;;;;;;3.70;0.57;;;21.70;1.00;;;;;;5089704;28;20399;-78
2022/10/08 08:29:23;;;;;;;4.38;0.90;;;22.70;1.00;;;;;;5109817;28;20012;-78
2022/10/08 08:31:48;;;;;;;3.53;0.80;;;29.00;1.00;;;;;;5096186;28;20052;-78
2022/10/08 08:34:17;;;;;;;2.95;0.75;;;32.00;1.00;;;;;;5100982;28;20023;-78
2022/10/08 08:36:45;;;;;;;3.72;1.08;;;25.00;1.00;;;;;;5105001;28;20067;-78
2022/10/08 08:39:19;;;;;;;3.45;0.50;;;23.60;1.00;;;;;;5096198;28;20028;-78
2022/10/08 08:41:52;;;;;;;2.83;0.45;;;26.60;1.00;;;;;;5096314;28;20771;-79
2022/10/08 08:44:24;;;;;;;3.47;0.57;;;26.30;1.00;;;;;;5093077;28;20102;-78
2022/10/08 08:47:12;;;;;;;3.47;0.77;;;26.60;1.00;;;;;;5098050;28;20028;-78
2022/10/08 08:49:45;;;;;;;6.10;0.90;;;30.80;1.00;;;;;;5093954;28;20069;-78
2022/10/08 08:52:14;;;;;;;6.88;1.02;;;31.20;1.00;;;;;;5101111;28;20072;-78
2022/10/08 08:54:41;;;;;;;3.53;0.63;;;32.00;1.00;;;;;;5098653;28;20499;-79
2022/10/08 08:57:19;;;;;;;3.45;0.65;;;33.10;1.00;;;;;;5100430;28;20030;-79
2022/10/08 08:59:46;;;;;;;5.30;1.10;;;33.40;1.00;;;;;;5098876;28;20487;-78
2022/10/08 09:02:23;;;;;;;2.88;0.70;;;32.50;1.00;;;;;;5092321;28;20012;-78
2022/10/08 09:04:59;;;;;;;4.32;0.90;;;33.30;1.00;;;;;;5101117;28;20055;-79
2022/10/08 09:07:32;;;;;;;4.43;0.85;;;31.60;1.00;;;;;;5102471;28;20024;-79
2022/10/08 09:09:58;;;;;;;6.05;0.82;;;31.70;1.00;;;;;;5091792;28;20035;-79
2022/10/08 09:12:35;;;;;;;4.15;0.65;;;33.50;1.00;;;;;;5087041;28;20016;-78
2022/10/08 09:15:03;;;;;;;4.45;0.82;;;33.70;1.00;;;;;;5101486;28;20030;-79
2022/10/08 09:17:37;;;;;;;3.42;0.70;;;33.50;1.00;;;;;;5093804;28;20044;-79
2022/10/08 09:20:04;;;;;;;5.03;0.88;;;33.50;1.00;;;;;;5105154;28;20419;-79
2022/10/08 09:22:35;;;;;;;5.20;1.10;;;31.70;1.00;;;;;;5095518;28;20048;-79
2022/10/08 09:25:21;;;;;;;2.55;0.50;;;32.20;1.00;;;;;;5088680;28;20025;-79
2022/10/08 09:27:53;;;;;;;4.70;0.88;;;30.80;1.00;;;;;;5093080;28;20028;-79
2022/10/08 09:30:30;;;;;;;3.38;0.70;;;32.50;1.00;;;;;;5098733;28;20028;-79
2022/10/08 09:33:17;;;;;;;4.45;0.65;;;33.00;1.00;;;;;;5097073;28;20024;-79
2022/10/08 09:35:48;;;;;;;3.50;0.52;;;33.30;1.00;;;;;;5093897;28;20082;-79
2022/10/08 09:38:36;;;;;;;6.28;0.93;;;33.10;1.00;;;;;;5100311;28;20051;-79
2022/10/08 09:41:05;;;;;;;2.60;0.85;;;31.50;1.00;;;;;;5085016;28;20591;-79
2022/10/08 09:43:33;;;;;;;3.65;0.70;;;31.40;1.00;;;;;;5097635;28;20050;-79
2022/10/08 09:46:01;;;;;;;6.40;0.60;;;30.40;1.00;;;;;;5098054;28;20055;-80
2022/10/08 09:48:28;;;;;;;5.18;0.68;;;31.30;1.00;;;;;;5097211;28;20020;-78
2022/10/08 09:51:05;;;;;;;3.22;1.08;;;32.80;1.00;;;;;;5081001;28;20020;-78
2022/10/08 09:53:47;;;;;;;3.28;0.60;;;32.30;1.00;;;;;;5086198;28;20031;-78
2022/10/08 09:56:14;;;;;;;7.05;0.82;;;31.60;1.00;;;;;;5092413;28;20016;-78
2022/10/08 09:58:59;;;;;;;5.93;1.13;;;31.40;1.00;;;;;;5098915;28;20039;-80
2022/10/08 10:01:25;;;;;;;9.57;1.00;;;30.10;1.00;;;;;;5092957;28;20099;-80
2022/10/08 10:04:00;;;;;;;5.75;0.98;;;30.50;1.00;;;;;;5106261;28;20682;-80
2022/10/08 10:06:36;;;;;;;7.03;0.98;;;29.30;1.00;;;;;;5091890;28;20024;-78
2022/10/08 10:09:19;;;;;;;7.18;1.13;;;27.20;1.00;;;;;;5090149;28;20382;-77
2022/10/08 10:11:48;;;;;;;3.97;0.80;;;25.20;1.00;;;;;;5096983;28;20160;-78
2022/10/08 10:14:23;;;;;;;5.30;0.80;;;23.20;1.00;;;;;;5089769;28;20055;-80
2022/10/08 10:16:54;;;;;;;5.47;0.98;;;21.90;1.00;;;;;;5083766;28;20288;-80
2022/10/08 10:19:24;;;;;;;7.35;1.27;;;20.90;1.00;;;;;;5098132;28;20368;-78
2022/10/08 10:21:58;;;;;;;6.05;0.63;;;20.60;1.00;;;;;;5093178;28;20032;-78
2022/10/08 10:24:52;;;;;;;5.53;0.75;;;20.40;1.00;;;;;;5095999;28;20498;-78
2022/10/08 10:27:33;;;;;;;4.53;0.93;;;19.80;1.00;;;;;;5096998;28;20036;-79
2022/10/08 10:30:16;;;;;;;7.57;1.10;;;19.60;1.00;;;;;;5086268;28;20356;-79
2022/10/08 10:33:09;;;;;;;9.27;0.90;;;19.20;1.00;;;;;;5089923;28;20467;-76
2022/10/08 10:35:40;;;;;;;6.43;1.10;;;19.20;1.00;;;;;;5091048;28;20020;-77
2022/10/08 10:38:11;;;;;;;7.40;0.80;;;18.60;1.00;;;;;;5094309;28;20016;-77
2022/10/08 10:40:41;;;;;;;6.47;0.80;;;18.60;1.00;;;;;;5092016;28;20047;-77
2022/10/08 10:43:12;;;;;;;;;;;18.70;1.00;;;;;;5091627;28;20024;-77
2022/10/08 10:45:40;;;;;;;5.20;0.82;;;18.40;1.00;;;;;;5090260;28;19963;-77
2022/10/08 10:48:10;;;;;;;4.45;0.95;;;18.10;1.00;;;;;;5096545;28;20035;-77
2022/10/08 10:50:37;;;;;;;5.70;0.70;;;18.00;1.00;;;;;;5094503;28;20026;-77
2022/10/08 10:53:30;;;;;;;5.75;0.90;;;18.00;1.00;;;;;;5083788;28;20447;-78
2022/10/08 10:56:19;;;;;;;3.60;0.73;;;17.80;1.00;;;;;;5091418;28;20428;-77
2022/10/08 10:58:47;;;;;;;5.18;0.70;;;17.80;1.00;;;;;;5087414;28;20020;-78
2022/10/08 11:01:44;;;;;;;5.45;0.88;;;17.80;1.00;;;;;;5095665;28;20028;-77
2022/10/08 11:04:28;;;;;;;5.03;0.70;;;17.70;1.00;;;;;;5114593;28;20079;-77
2022/10/08 11:07:18;;;;;;;7.35;1.23;;;17.80;1.00;;;;;;5100040;28;20020;-78
2022/10/08 11:10:01;;;;;;;7.80;0.80;;;17.80;1.00;;;;;;5082781;28;20057;-78
2022/10/08 11:12:33;;;;;;;10.52;0.93;;;17.80;1.00;;;;;;5087173;28;20058;-78
2022/10/08 11:15:26;;;;;;;6.13;0.70;;;17.80;1.00;;;;;;5104183;28;20028;-78
2022/10/08 11:18:21;;;;;;;6.43;1.05;;;17.60;1.00;;;;;;5075066;28;20048;-77
2022/10/08 11:21:11;;;;;;;6.47;1.00;;;17.60;1.00;;;;;;5063190;28;20045;-78
2022/10/08 11:23:36;;;;;;;3.78;0.77;;;17.80;1.00;;;;;;5095558;28;20020;-77
2022/10/08 11:26:24;;;;;;;5.43;1.30;;;17.70;1.00;;;;;;5095709;28;20566;-78
2022/10/08 11:29:06;;;;;;;6.57;0.98;;;17.70;1.00;;;;;;5095921;28;20027;-78
2022/10/08 11:31:50;;;;;;;6.55;0.98;;;17.70;1.00;;;;;;5093799;28;20020;-78
2022/10/08 11:34:22;;;;;;;4.68;0.60;;;17.60;1.00;;;;;;5096342;28;20406;-78
2022/10/08 11:37:07;;;;;;;5.88;0.80;;;17.60;1.00;;;;;;5102566;28;20052;-78
2022/10/08 11:39:57;;;;;;;5.97;0.75;;;17.50;1.00;;;;;;5099784;28;20024;-78
2022/10/08 11:42:44;;;;;;;7.47;0.80;;;17.40;1.00;;;;;;5106385;28;20020;-78
2022/10/08 11:45:22;;;;;;;5.90;0.70;;;17.30;1.00;;;;;;5080483;28;20039;-78
2022/10/08 11:47:52;;;;;;;3.33;0.85;;;17.30;1.00;;;;;;5118123;28;20038;-78
2022/10/08 11:50:28;;;;;;;5.10;1.00;;;17.50;1.00;;;;;;5120067;28;21012;-78
2022/10/08 11:53:08;;;;;;;3.53;0.95;;;17.60;1.00;;;;;;5098900;28;20036;-78
2022/10/08 11:55:35;;;;;;;12.15;0.80;;;17.50;1.00;;;;;;5102297;28;20028;-78
2022/10/08 11:58:04;;;;;;;4.78;0.60;;;17.40;1.00;;;;;;5096314;28;20494;-78
2022/10/08 12:00:43;;;;;;;4.50;0.80;;;17.50;1.00;;;;;;5096073;28;20020;-78
2022/10/08 12:03:29;;;;;;;4.55;0.93;;;17.50;1.00;;;;;;5095168;28;20024;-78
2022/10/08 12:06:17;;;;;;;5.28;0.73;;;17.60;1.00;;;;;;5093082;28;20028;-78
2022/10/08 12:08:57;;;;;;;3.38;0.70;;;17.70;1.00;;;;;;5097209;28;20031;-77
2022/10/08 12:11:35;;;;;;;7.78;1.83;;;17.60;1.00;;;;;;5096130;28;20035;-77
2022/10/08 12:14:10;;;;;;;5.90;0.80;;;17.70;1.00;;;;;;5095367;28;20031;-77
2022/10/08 12:16:48;;;;;;;7.57;0.90;;;17.90;1.00;;;;;;5088677;28;20047;-77
2022/10/08 12:19:31;;;;;;;5.57;0.82;;;17.90;1.00;;;;;;5095200;28;20024;-77
2022/10/08 12:22:13;;;;;;;7.15;1.50;;;17.70;1.00;;;;;;5090542;28;20031;-78
2022/10/08 12:24:39;;;;;;;6.82;1.05;;;18.10;1.00;;;;;;5094718;28;20384;-78
2022/10/08 12:27:17;;;;;;;4.97;0.88;;;18.10;1.00;;;;;;5105098;28;20095;-78
2022/10/08 12:30:11;;;;;;;5.40;0.82;;;17.70;1.00;;;;;;5090015;28;20510;-78
2022/10/08 12:32:43;;;;;;;3.22;0.77;;;17.70;1.00;;;;;;5094254;28;20153;-78
2022/10/08 12:35:26;;;;;;;4.97;0.65;;;17.70;1.00;;;;;;5101358;28;20016;-78
2022/10/08 12:38:22;;;;;;;3.97;0.75;;;17.60;1.00;;;;;;5102200;28;20026;-77
2022/10/08 12:40:58;;;;;;;3.30;0.63;;;17.60;1.00;;;;;;5098661;28;20517;-78
2022/10/08 12:43:47;;;;;;;2.10;0.68;;;17.60;1.00;;;;;;5094311;28;20467;-77
2022/10/08 12:46:34;;;;;;;4.28;0.60;;;17.60;1.00;;;;;;5092832;28;20149;-78
2022/10/08 12:49:15;;;;;;;6.63;0.98;;;17.60;1.00;;;;;;5088294;28;20079;-77
2022/10/08 12:52:09;;;;;;;5.18;0.80;;;17.30;1.00;;;;;;5092490;28;20384;-77
2022/10/08 12:54:37;;;;;;;4.97;0.75;;;17.40;1.00;;;;;;5090541;28;20408;-77
2022/10/08 12:57:08;;;;;;;8.88;0.80;;;17.50;1.00;;;;;;5080915;28;20050;-77
2022/10/08 12:59:36;;;;;;;5.47;0.70;;;17.90;1.00;;;;;;5094739;28;20024;-78
2022/10/08 13:02:01;;;;;;;6.47;0.80;;;17.80;1.00;;;;;;5101414;28;20490;-77
2022/10/08 13:04:32;;;;;;;5.47;0.68;;;17.90;1.00;;;;;;5088274;28;20029;-77
2022/10/08 13:06:58;;;;;;;5.50;0.80;;;18.00;1.00;;;;;;5094955;28;20038;-77
2022/10/08 13:09:34;;;;;;;6.05;0.82;;;18.10;1.00;;;;;;5089870;28;20028;-78
2022/10/08 13:12:03;;;;;;;4.28;0.70;;;17.90;1.00;;;;;;5096593;28;20020;-78
2022/10/08 13:14:39;;;;;;;4.72;0.80;;;17.90;1.00;;;;;;5092879;28;20016;-78
2022/10/08 13:17:05;;;;;;;6.00;1.00;;;17.60;1.00;;;;;;5087720;28;20509;-78
2022/10/08 13:19:32;;;;;;;5.50;1.13;;;17.60;1.00;;;;;;5103842;28;20114;-78
2022/10/08 13:22:07;;;;;;;6.30;0.90;;;17.60;1.00;;;;;;5096647;28;20123;-78